Time;durP1;ratioP1;P1;durP2;ratioP2;P2;SDS_P1;SDS_P2;PMS_P1;PMS_P2;Temp;Humidity;BMP_temperature;BMP_pressure;BME280_temperature;BME280_humidity;BME280_pressure;Samples;Min_cycle;Max_cycle;Signal;HPM_P1;HPM_P2
2022/05/24 00:01:39;;;;;;;;;3.50;2.00;;;;;23.46;43.19;100033.25;5011439;28;46787;-56
2022/05/24 00:04:04;;;;;;;;;2.00;2.00;;;;;23.46;43.51;100040.34;5015116;28;49450;-55
2022/05/24 00:06:31;;;;;;;;;2.00;2.00;;;;;23.45;43.92;100049.25;5021598;28;44754;-52
2022/05/24 00:08:57;;;;;;;;;3.00;3.00;;;;;23.44;43.26;100043.09;5021437;28;44798;-52
2022/05/24 00:11:23;;;;;;;;;1.00;1.00;;;;;23.44;43.13;100048.41;5006013;28;45326;-59
2022/05/24 00:13:48;;;;;;;;;2.25;2.00;;;;;23.44;43.50;100051.03;5009454;28;45462;-51
2022/05/24 00:16:13;;;;;;;;;1.75;1.75;;;;;23.44;43.19;100069.56;5021928;28;44613;-55
2022/05/24 00:18:39;;;;;;;;;2.25;2.00;;;;;23.44;43.18;100072.19;5022593;28;45800;-54
2022/05/24 00:21:06;;;;;;;;;1.00;1.00;;;;;23.44;43.30;100084.59;5022170;28;45056;-56
2022/05/24 00:23:33;;;;;;;;;2.00;2.00;;;;;23.43;43.40;100082.91;5021118;28;45009;-55
2022/05/24 00:26:02;;;;;;;;;3.00;1.75;;;;;23.42;43.39;100082.09;5021233;28;44829;-53
2022/05/24 00:28:30;;;;;;;;;1.25;1.25;;;;;23.41;43.34;100088.34;5021460;28;44822;-56
2022/05/24 00:30:56;;;;;;;;;2.00;1.00;;;;;23.42;42.99;100079.44;5016855;28;45844;-52
2022/05/24 00:33:22;;;;;;;;;1.50;1.00;;;;;23.39;43.35;100074.38;5012037;28;45637;-54
2022/05/24 00:35:49;;;;;;;;;2.00;2.00;;;;;23.41;42.99;100076.91;5003502;28;45382;-52
2022/05/24 00:38:24;;;;;;;;;2.00;1.25;;;;;23.39;42.71;100074.38;5004018;28;45327;-60
2022/05/24 00:41:08;;;;;;;;;1.00;1.00;;;;;23.39;43.02;100063.81;5001396;28;47114;-56
2022/05/24 00:43:52;;;;;;;;;3.25;1.00;;;;;23.38;43.02;100046.25;5001748;28;45301;-52
2022/05/24 00:46:22;;;;;;;;;1.25;1.25;;;;;23.37;42.55;100057.78;5002544;28;45209;-55
2022/05/24 00:49:00;;;;;;;;;2.00;2.00;;;;;23.36;42.60;100056.09;5003193;28;45381;-53
2022/05/24 00:51:31;;;;;;;;;2.00;2.00;;;;;23.37;43.10;100054.31;5003186;28;45322;-54
2022/05/24 00:53:57;;;;;;;;;1.25;1.25;;;;;23.37;42.65;100055.16;5001496;28;45382;-55
2022/05/24 00:56:50;;;;;;;;;1.25;1.25;;;;;23.35;42.71;100054.44;4999200;28;45443;-54
2022/05/24 00:59:35;;;;;;;;;2.00;2.00;;;;;23.34;42.39;100044.81;4999666;28;45478;-55
2022/05/24 01:02:01;;;;;;;;;2.50;1.00;;;;;23.33;42.45;100048.41;4998069;28;45511;-58
2022/05/24 01:04:26;;;;;;;;;2.00;2.00;;;;;23.28;42.54;100043.50;4998245;28;45376;-56
2022/05/24 01:06:52;;;;;;;;;2.00;2.00;;;;;23.33;42.28;100056.34;4998419;28;45372;-57
2022/05/24 01:09:26;;;;;;;;;1.00;1.00;;;;;23.31;42.21;100056.47;4999186;28;45471;-55
2022/05/24 01:11:58;;;;;;;;;1.00;1.00;;;;;23.31;42.39;100059.13;5001087;28;46266;-53
2022/05/24 01:14:25;;;;;;;;;1.00;1.00;;;;;23.32;42.42;100057.31;5002829;28;45699;-50
2022/05/24 01:16:52;;;;;;;;;1.00;1.00;;;;;23.31;42.60;100066.22;5000562;28;45423;-54
2022/05/24 01:19:34;;;;;;;;;1.50;1.50;;;;;23.31;41.97;100063.59;4999483;28;45473;-51
2022/05/24 01:22:11;;;;;;;;;1.00;1.00;;;;;23.30;41.96;100065.38;5007056;28;46388;-52
2022/05/24 01:24:48;;;;;;;;;1.75;1.75;;;;;23.29;42.08;100068.16;5016049;28;45058;-54
2022/05/24 01:27:14;;;;;;;;;1.00;1.00;;;;;23.29;42.02;100073.44;4999445;28;45262;-60
2022/05/24 01:29:39;;;;;;;;;0.50;0.50;;;;;23.28;41.67;100077.03;4998216;28;45803;-60
2022/05/24 01:37:33;;;;;;;;;1.00;1.00;;;;;23.26;42.03;100063.91;5001346;28;45175;-57
2022/05/24 01:39:59;;;;;;;;;0.50;0.50;;;;;23.26;41.66;100079.78;5001666;28;45622;-56
2022/05/24 01:42:26;;;;;;;;;1.00;1.00;;;;;23.25;41.63;100072.84;4998383;28;46401;-58
2022/05/24 01:45:07;;;;;;;;;2.75;1.00;;;;;23.24;41.41;100067.66;4998248;28;45408;-50
2022/05/24 01:47:34;;;;;;;;;2.00;1.00;;;;;23.23;41.88;100079.19;5000128;28;45381;-52
2022/05/24 01:50:04;;;;;;;;;0.50;0.50;;;;;23.24;41.68;100081.72;5001990;28;45187;-56
2022/05/24 01:52:41;;;;;;;;;2.25;1.00;;;;;23.23;41.30;100090.63;5001816;28;48284;-52
2022/05/24 01:55:14;;;;;;;;;0.25;0.25;;;;;23.23;41.42;100089.75;4998679;28;45324;-54
2022/05/24 01:57:50;;;;;;;;;2.50;1.75;;;;;23.22;41.64;100082.78;4997900;28;45420;-51
2022/05/24 02:00:16;;;;;;;;;1.00;1.00;;;;;23.20;41.29;100085.56;4998179;28;45394;-48
2022/05/24 02:02:42;;;;;;;;;1.00;1.00;;;;;23.22;41.54;100099.50;4997998;28;47007;-49
2022/05/24 02:05:08;;;;;;;;;1.00;1.00;;;;;23.22;41.56;100096.88;4997920;28;45708;-54
2022/05/24 02:07:34;;;;;;;;;1.00;0.50;;;;;23.22;40.92;100090.72;4998200;28;45266;-50
2022/05/24 02:09:59;;;;;;;;;1.00;1.00;;;;;23.20;41.13;100103.25;4998120;28;45220;-51
2022/05/24 02:12:31;;;;;;;;;0.75;0.75;;;;;23.20;41.45;100096.16;4999594;28;46503;-50
2022/05/24 02:14:59;;;;;;;;;1.00;1.00;;;;;23.17;41.21;100091.91;4998952;28;45368;-51
2022/05/24 02:17:31;;;;;;;;;2.00;1.00;;;;;23.17;41.39;100097.19;5010153;28;45206;-56
2022/05/24 02:20:01;;;;;;;;;1.00;1.00;;;;;23.16;41.11;100087.59;5008472;28;45459;-56
2022/05/24 02:22:29;;;;;;;;;3.00;1.00;;;;;23.16;41.17;100092.88;5000698;28;45384;-55
2022/05/24 02:25:03;;;;;;;;;0.25;0.25;;;;;23.17;41.06;100093.69;5001570;28;45803;-50
2022/05/24 02:27:29;;;;;;;;;0.00;0.00;;;;;23.17;40.91;100093.69;5005250;28;45415;-55
2022/05/24 02:29:56;;;;;;;;;0.50;0.50;;;;;23.16;40.83;100090.22;5004612;28;45480;-56
2022/05/24 02:32:22;;;;;;;;;1.00;1.00;;;;;23.15;41.09;100085.91;5001780;28;45515;-53
2022/05/24 02:34:47;;;;;;;;;0.50;0.50;;;;;23.13;41.03;100095.75;5000712;28;45241;-54
2022/05/24 02:37:12;;;;;;;;;2.50;1.00;;;;;23.16;40.93;100099.94;5000309;28;45328;-54
2022/05/24 02:42:22;;;;;;;;;0.00;0.00;;;;;23.13;40.80;100095.75;5000100;28;45520;-56
2022/05/24 02:44:47;;;;;;;;;0.25;0.25;;;;;23.14;40.63;100100.06;5000389;28;45426;-53
2022/05/24 02:47:13;;;;;;;;;2.00;0.50;;;;;23.12;40.63;100091.41;5000201;28;45457;-54
2022/05/24 02:49:38;;;;;;;;;0.00;0.00;;;;;23.12;41.00;100109.91;5000546;28;45265;-49
2022/05/24 02:52:04;;;;;;;;;1.00;1.00;;;;;23.11;41.09;100096.84;5000214;28;46279;-55
2022/05/24 02:54:30;;;;;;;;;0.75;0.00;;;;;23.12;40.30;100106.44;4999923;28;45255;-57
2022/05/24 02:56:55;;;;;;;;;0.00;0.00;;;;;23.11;40.84;100110.88;5000603;28;45233;-52
2022/05/24 02:59:21;;;;;;;;;0.00;0.00;;;;;23.11;40.64;100110.88;5000879;28;45586;-55
2022/05/24 03:01:46;;;;;;;;;0.25;0.25;;;;;23.10;40.75;100111.84;5000324;28;46252;-53
2022/05/24 03:04:11;;;;;;;;;1.00;1.00;;;;;23.10;40.74;100117.13;5003421;28;48713;-50
2022/05/24 03:09:36;;;;;;;;;0.00;0.00;;;;;23.08;40.76;100121.72;5001679;28;45206;-53
2022/05/24 03:14:53;;;;;;;;;0.00;0.00;;;;;23.08;40.44;100129.66;5000742;28;45205;-51
2022/05/24 03:17:19;;;;;;;;;2.00;1.00;;;;;23.07;40.58;100127.09;5002042;28;45341;-50
2022/05/24 03:19:46;;;;;;;;;1.00;1.00;;;;;23.07;40.68;100132.38;5008065;28;45340;-55
2022/05/24 03:22:13;;;;;;;;;0.00;0.00;;;;;23.05;40.32;100127.22;5020596;28;46835;-51
2022/05/24 03:24:38;;;;;;;;;0.50;0.50;;;;;23.06;40.30;100128.06;5008026;28;45658;-54
2022/05/24 03:27:13;;;;;;;;;1.00;0.25;;;;;23.05;40.87;100140.44;5001592;28;45353;-51
2022/05/24 03:29:43;;;;;;;;;2.00;0.00;;;;;23.03;40.47;100147.66;4999076;28;45168;-53
2022/05/24 03:32:10;;;;;;;;;0.00;0.00;;;;;23.05;40.72;100158.94;4999826;28;46559;-51
2022/05/24 03:34:36;;;;;;;;;0.00;0.00;;;;;23.04;40.67;100159.91;4999603;28;45411;-51
2022/05/24 03:37:02;;;;;;;;;1.00;1.00;;;;;23.03;40.78;100152.94;4999723;28;45401;-53
2022/05/24 03:39:27;;;;;;;;;0.00;0.00;;;;;23.02;40.48;100156.53;5000283;28;45340;-55
2022/05/24 03:41:53;;;;;;;;;2.00;0.00;;;;;23.02;40.16;100153.88;5002746;28;46295;-55
2022/05/24 03:44:19;;;;;;;;;0.00;0.00;;;;;22.99;40.28;100147.03;5004014;28;45514;-56
2022/05/24 03:46:45;;;;;;;;;0.00;0.00;;;;;22.97;40.39;100162.16;5001023;28;45334;-54
2022/05/24 03:49:10;;;;;;;;;0.00;0.00;;;;;22.95;40.32;100156.16;4999560;28;45231;-54
2022/05/24 03:51:36;;;;;;;;;0.00;0.00;;;;;22.95;40.41;100165.91;4999133;28;46257;-53
2022/05/24 03:54:01;;;;;;;;;0.25;0.25;;;;;22.93;40.47;100173.91;4999184;28;45296;-51
2022/05/24 03:56:27;;;;;;;;;0.75;0.75;;;;;22.92;40.14;100181.97;5000039;28;45249;-54
2022/05/24 03:58:52;;;;;;;;;1.00;1.00;;;;;22.90;40.72;100183.88;4999772;28;45563;-52
2022/05/24 04:01:17;;;;;;;;;1.50;1.00;;;;;22.89;40.57;100180.41;4998902;28;46188;-52
2022/05/24 04:03:43;;;;;;;;;1.75;0.00;;;;;22.88;40.09;100180.50;4999532;28;45388;-47
2022/05/24 04:06:08;;;;;;;;;0.50;0.00;;;;;22.88;40.73;100185.81;4999239;28;45577;-54
2022/05/24 04:08:34;;;;;;;;;0.25;0.00;;;;;22.87;40.63;100192.06;4999487;28;45313;-53
2022/05/24 04:11:01;;;;;;;;;1.00;1.00;;;;;22.89;40.35;100192.78;4999601;28;46933;-44
2022/05/24 04:13:26;;;;;;;;;1.00;1.00;;;;;22.88;40.60;100201.66;4999754;28;45635;-49
2022/05/24 04:15:51;;;;;;;;;1.00;1.00;;;;;22.88;40.41;100199.00;5000665;28;45309;-49
2022/05/24 04:18:17;;;;;;;;;1.25;0.00;;;;;22.89;40.31;100206.84;5003928;28;45312;-50
2022/05/24 04:20:42;;;;;;;;;0.50;0.50;;;;;22.88;40.47;100196.38;5007637;28;47076;-53
2022/05/24 04:23:12;;;;;;;;;0.50;0.50;;;;;22.89;40.31;100198.91;5006243;28;45269;-51
2022/05/24 04:25:38;;;;;;;;;0.00;0.00;;;;;22.89;40.37;100203.34;4998888;28;45312;-48
2022/05/24 04:28:04;;;;;;;;;2.00;1.00;;;;;22.90;40.34;100205.03;4999020;28;45621;-53
2022/05/24 04:30:31;;;;;;;;;0.00;0.00;;;;;22.90;40.41;100203.25;4998714;28;45383;-49
2022/05/24 04:32:56;;;;;;;;;2.00;0.00;;;;;22.88;40.28;100196.38;4999023;28;45680;-51
2022/05/24 04:35:21;;;;;;;;;0.00;0.00;;;;;22.89;39.97;100213.91;4999072;28;45345;-47
2022/05/24 04:37:47;;;;;;;;;0.00;0.00;;;;;22.90;40.29;100226.16;5001346;28;45257;-48
2022/05/24 04:40:13;;;;;;;;;0.75;0.75;;;;;22.90;40.13;100223.53;5012888;28;45448;-52
2022/05/24 04:42:38;;;;;;;;;0.00;0.00;;;;;22.88;40.13;100225.44;5013155;28;45321;-51
2022/05/24 04:45:07;;;;;;;;;1.50;1.00;;;;;22.88;39.91;100225.44;5003791;28;45261;-49
2022/05/24 04:47:33;;;;;;;;;1.00;1.00;;;;;22.90;40.22;100231.44;4999446;28;45536;-47
2022/05/24 04:50:02;;;;;;;;;0.50;0.50;;;;;22.91;40.26;100246.34;4998541;28;46446;-46
2022/05/24 04:52:32;;;;;;;;;0.00;0.00;;;;;22.89;39.95;100235.91;4998209;28;45739;-47
2022/05/24 04:54:57;;;;;;;;;0.25;0.25;;;;;22.84;40.01;100230.13;4998949;28;45246;-50
2022/05/24 04:57:23;;;;;;;;;0.00;0.00;;;;;22.90;39.94;100239.38;5005483;28;45810;-47
2022/05/24 04:59:49;;;;;;;;;2.50;0.00;;;;;22.90;39.71;100247.31;5016536;28;45236;-51
2022/05/24 05:02:15;;;;;;;;;0.00;0.00;;;;;22.90;39.98;100242.88;5013539;28;44794;-46
2022/05/24 05:04:40;;;;;;;;;0.25;0.00;;;;;22.90;40.03;100252.59;5016590;28;44805;-52
2022/05/24 05:07:06;;;;;;;;;0.00;0.00;;;;;22.90;39.78;100257.88;5010061;28;45314;-45
2022/05/24 05:09:34;;;;;;;;;0.00;0.00;;;;;22.90;39.95;100257.88;4998155;28;46373;-49
2022/05/24 05:12:08;;;;;;;;;0.25;0.00;;;;;22.90;39.59;100261.38;5000557;28;45371;-49
2022/05/24 05:14:35;;;;;;;;;0.00;0.00;;;;;22.90;39.53;100265.81;5003225;28;45475;-52
2022/05/24 05:17:01;;;;;;;;;1.00;1.00;;;;;22.89;39.62;100262.34;5005572;28;45238;-47
2022/05/24 05:19:27;;;;;;;;;0.00;0.00;;;;;22.88;39.63;100259.78;5005143;28;45629;-49
2022/05/24 05:21:53;;;;;;;;;1.00;1.00;;;;;22.89;39.90;100264.13;5014323;28;44933;-47
2022/05/24 05:24:18;;;;;;;;;0.00;0.00;;;;;22.89;39.73;100262.34;5009836;28;45384;-52
2022/05/24 05:26:44;;;;;;;;;0.00;0.00;;;;;22.88;39.72;100270.34;5016621;28;45606;-49
2022/05/24 05:29:09;;;;;;;;;0.00;0.00;;;;;22.87;39.53;100276.63;5016405;28;45440;-49
2022/05/24 05:31:34;;;;;;;;;0.75;0.00;;;;;22.88;39.82;100280.91;5014080;28;45312;-48
2022/05/24 05:34:01;;;;;;;;;0.00;0.00;;;;;22.89;39.86;100285.25;5007960;28;45479;-48
2022/05/24 05:36:28;;;;;;;;;0.25;0.25;;;;;22.87;39.58;100284.56;5002894;28;45817;-47
2022/05/24 05:38:55;;;;;;;;;1.25;0.00;;;;;22.88;39.47;100291.50;5004533;28;47057;-48
2022/05/24 05:41:38;;;;;;;;;0.50;0.50;;;;;22.88;39.73;100302.06;4998670;28;45452;-48
2022/05/24 05:44:04;;;;;;;;;0.00;0.00;;;;;22.87;39.64;100300.41;4998885;28;45185;-55
2022/05/24 05:46:29;;;;;;;;;0.00;0.00;;;;;22.87;39.59;100290.66;4999128;28;45611;-49
2022/05/24 05:48:55;;;;;;;;;1.25;0.00;;;;;22.86;39.63;100296.91;4998051;28;46280;-48
2022/05/24 05:51:20;;;;;;;;;2.00;0.00;;;;;22.87;39.47;100301.22;4997802;28;45252;-47
2022/05/24 05:53:46;;;;;;;;;0.00;0.00;;;;;22.87;39.61;100305.69;5000082;28;45312;-51
2022/05/24 05:56:19;;;;;;;;;0.00;0.00;;;;;22.87;39.40;100308.34;5001407;28;45601;-53
2022/05/24 05:58:45;;;;;;;;;0.00;0.00;;;;;22.87;39.89;100316.25;5001145;28;46434;-55
2022/05/24 06:01:15;;;;;;;;;0.00;0.00;;;;;22.85;39.42;100321.63;5001812;28;45264;-51
2022/05/24 06:03:41;;;;;;;;;0.50;0.00;;;;;22.81;39.54;100323.66;4999861;28;45398;-52
2022/05/24 06:06:09;;;;;;;;;0.00;0.00;;;;;22.81;39.42;100320.19;5001680;28;45387;-50
2022/05/24 06:08:35;;;;;;;;;0.75;0.50;;;;;22.78;39.63;100329.16;5004395;28;47083;-54
2022/05/24 06:11:00;;;;;;;;;1.00;1.00;;;;;22.77;39.76;100321.38;5003847;28;45353;-48
2022/05/24 06:13:27;;;;;;;;;0.25;0.25;;;;;22.74;39.60;100338.28;5004579;28;45339;-50
2022/05/24 06:15:55;;;;;;;;;0.00;0.00;;;;;22.73;39.48;100333.97;5021829;28;45608;-47
2022/05/24 06:18:20;;;;;;;;;1.00;0.00;;;;;22.72;39.12;100334.03;5006716;28;46284;-48
2022/05/24 06:20:45;;;;;;;;;0.25;0.25;;;;;22.70;39.39;100336.81;4999708;28;45296;-51
2022/05/24 06:23:11;;;;;;;;;0.00;0.00;;;;;22.70;39.37;100344.75;5000272;28;45660;-49
2022/05/24 06:25:36;;;;;;;;;0.00;0.00;;;;;22.69;39.36;100349.19;5000623;28;45570;-49
2022/05/24 06:28:02;;;;;;;;;1.00;0.00;;;;;22.68;39.21;100349.28;5001243;28;45454;-49
2022/05/24 06:30:28;;;;;;;;;0.00;0.00;;;;;22.67;39.31;100355.50;5001573;28;45438;-50
2022/05/24 06:32:54;;;;;;;;;0.00;0.00;;;;;22.65;39.09;100362.72;5002085;28;45293;-55
2022/05/24 06:35:20;;;;;;;;;0.00;0.00;;;;;22.65;39.35;100362.72;5002391;28;45251;-54
2022/05/24 06:37:48;;;;;;;;;0.00;0.00;;;;;22.65;39.26;100360.09;5002126;28;45873;-48
2022/05/24 06:40:17;;;;;;;;;0.50;0.50;;;;;22.66;39.42;100372.31;5004297;28;45732;-50
2022/05/24 06:42:43;;;;;;;;;0.25;0.25;;;;;22.66;39.08;100369.69;5004530;28;45360;-47
2022/05/24 06:45:09;;;;;;;;;0.00;0.00;;;;;22.65;39.31;100365.38;5019373;28;45302;-51
2022/05/24 06:47:34;;;;;;;;;0.00;0.00;;;;;22.65;39.48;100370.66;5007369;28;46505;-50
2022/05/24 06:50:00;;;;;;;;;1.00;1.00;;;;;22.64;39.20;100368.97;5011036;28;45290;-48
2022/05/24 06:52:26;;;;;;;;;0.75;0.75;;;;;22.63;39.05;100373.38;4999968;28;45510;-50
2022/05/24 06:54:53;;;;;;;;;1.00;0.50;;;;;22.65;39.12;100381.22;4998082;28;45399;-54
2022/05/24 06:57:18;;;;;;;;;0.75;0.75;;;;;22.64;39.27;100379.53;4978696;28;46546;-47
2022/05/24 07:02:27;;;;;;;;;0.25;0.25;;;;;22.64;38.98;100390.09;4994038;28;45293;-54
2022/05/24 07:05:04;;;;;;;;;0.00;0.00;;;;;22.65;39.29;100386.50;4997980;28;45333;-52
2022/05/24 07:07:32;;;;;;;;;1.00;1.00;;;;;22.67;39.23;100395.13;4998351;28;46473;-56
2022/05/24 07:09:58;;;;;;;;;0.50;0.50;;;;;22.68;39.10;100392.41;4998395;28;45841;-51
2022/05/24 07:12:25;;;;;;;;;0.50;0.00;;;;;22.70;39.15;100395.78;4998335;28;45375;-55
2022/05/24 07:14:51;;;;;;;;;0.00;0.00;;;;;22.73;39.25;100394.72;4998254;28;45344;-50
2022/05/24 07:17:17;;;;;;;;;0.00;0.00;;;;;22.73;39.19;100400.00;4998059;28;45477;-51
2022/05/24 07:19:43;;;;;;;;;1.50;0.00;;;;;22.75;38.88;100398.09;4998124;28;45681;-55
2022/05/24 07:22:10;;;;;;;;;1.25;1.00;;;;;22.76;38.98;100409.50;4998068;28;45355;-52
2022/05/24 07:24:36;;;;;;;;;2.00;0.00;;;;;22.77;38.92;100401.44;4998550;28;45494;-51
2022/05/24 07:27:04;;;;;;;;;0.50;0.25;;;;;22.79;39.22;100399.53;4997661;28;46421;-53
2022/05/24 07:29:32;;;;;;;;;0.00;0.00;;;;;22.79;38.81;100402.19;4997788;28;45247;-55
2022/05/24 07:31:57;;;;;;;;;0.00;0.00;;;;;22.81;39.07;100407.38;4998128;28;45435;-52
2022/05/24 07:34:23;;;;;;;;;1.00;0.00;;;;;22.81;39.23;100408.22;4997868;28;45443;-50
2022/05/24 07:36:49;;;;;;;;;1.00;1.00;;;;;22.80;38.64;100406.53;4997078;28;56017;-53
2022/05/24 07:39:14;;;;;;;;;0.00;0.00;;;;;22.81;39.10;100405.56;4997203;28;59998;-52
2022/05/24 07:47:09;;;;;;;;;0.75;0.75;;;;;22.84;39.28;100410.63;4997716;28;45678;-56
2022/05/24 07:49:35;;;;;;;;;2.25;0.00;;;;;22.85;38.81;100409.69;4998004;28;45300;-53
2022/05/24 07:52:01;;;;;;;;;2.00;1.00;;;;;22.85;38.80;100408.84;4997755;28;45323;-52
2022/05/24 07:54:26;;;;;;;;;0.00;0.00;;;;;22.86;38.62;100415.81;4996261;28;45436;-52
2022/05/24 07:56:51;;;;;;;;;0.00;0.00;;;;;22.87;38.76;100419.31;4996911;28;54214;-54
2022/05/24 07:59:17;;;;;;;;;1.25;1.00;;;;;22.90;38.73;100413.78;4996965;28;47967;-51
2022/05/24 08:01:43;;;;;;;;;1.00;0.00;;;;;22.89;38.49;100415.59;4997158;28;45463;-53
2022/05/24 08:04:09;;;;;;;;;1.00;1.00;;;;;22.90;38.63;100427.00;4997886;28;45360;-53
2022/05/24 08:06:35;;;;;;;;;0.25;0.25;;;;;22.90;38.81;100424.34;4997067;28;46972;-45
2022/05/24 08:09:00;;;;;;;;;2.75;0.00;;;;;22.91;38.52;100423.41;4997308;28;45870;-46
2022/05/24 08:11:26;;;;;;;;;0.75;0.75;;;;;22.93;38.98;100421.50;4997502;28;45322;-50
2022/05/24 08:13:51;;;;;;;;;1.00;1.00;;;;;22.92;38.77;100419.81;4997529;28;45408;-54
2022/05/24 08:16:16;;;;;;;;;0.00;0.00;;;;;22.93;38.48;100429.41;4996433;28;46936;-48
2022/05/24 08:18:44;;;;;;;;;1.50;0.00;;;;;22.95;38.20;100422.22;4996925;28;45243;-49
2022/05/24 08:21:09;;;;;;;;;1.00;1.00;;;;;22.96;38.44;100421.28;4997509;28;45506;-52
2022/05/24 08:23:35;;;;;;;;;2.00;1.00;;;;;22.97;37.87;100417.69;4997319;28;45556;-51
2022/05/24 08:26:00;;;;;;;;;1.25;1.00;;;;;22.97;38.45;100418.53;4996991;28;46161;-49
2022/05/24 08:28:26;;;;;;;;;2.00;0.00;;;;;22.98;38.09;100414.91;4997061;28;45451;-51
2022/05/24 08:30:53;;;;;;;;;0.25;0.25;;;;;22.98;38.10;100408.81;4995761;28;45761;-47
2022/05/24 08:33:20;;;;;;;;;0.00;0.00;;;;;23.00;38.11;100422.72;4996430;28;45599;-50
2022/05/24 08:35:46;;;;;;;;;1.00;1.00;;;;;22.98;38.07;100417.56;5003168;28;46335;-55
2022/05/24 08:38:13;;;;;;;;;0.25;0.25;;;;;22.97;38.05;100415.88;4997506;28;45609;-47
2022/05/24 08:40:41;;;;;;;;;0.25;0.25;;;;;22.99;37.71;100426.31;4995863;28;45664;-51
2022/05/24 08:43:28;;;;;;;;;0.00;0.00;;;;;23.00;37.90;100423.59;4997499;28;45475;-52
2022/05/24 08:48:59;;;;;;;;;0.00;0.00;;;;;23.01;37.83;100432.34;4997421;28;45323;-50
2022/05/24 08:51:29;;;;;;;;;5.00;1.00;;;;;23.01;38.02;100419.13;4997022;28;45250;-48
2022/05/24 08:53:59;;;;;;;;;0.50;0.50;;;;;23.03;37.85;100425.16;4997015;28;45273;-48
2022/05/24 08:56:30;;;;;;;;;0.00;0.00;;;;;23.03;37.82;100422.50;4996750;28;45412;-47
2022/05/24 08:59:03;;;;;;;;;1.50;1.00;;;;;23.03;37.63;100422.50;4996615;28;45462;-55
2022/05/24 09:01:32;;;;;;;;;0.75;0.75;;;;;23.03;37.51;100427.81;4995324;28;45459;-50
2022/05/24 09:03:59;;;;;;;;;1.25;0.50;;;;;23.03;37.43;100421.69;4997140;28;45257;-46
2022/05/24 09:06:30;;;;;;;;;2.00;0.50;;;;;23.03;37.55;100430.44;4996453;28;45454;-50
2022/05/24 09:09:14;;;;;;;;;1.00;1.00;;;;;23.03;37.38;100422.50;4996807;28;45445;-49
2022/05/24 09:11:39;;;;;;;;;0.00;0.00;;;;;23.05;37.57;100419.75;4996820;28;45534;-52
2022/05/24 09:14:25;;;;;;;;;1.00;1.00;;;;;23.05;37.26;100415.31;4997021;28;45317;-49
2022/05/24 09:17:04;;;;;;;;;2.00;2.00;;;;;23.04;37.22;100421.56;4996463;28;45565;-47
2022/05/24 09:19:35;;;;;;;;;2.00;0.75;;;;;23.03;36.95;100414.59;4995377;28;45834;-48
2022/05/24 09:22:02;;;;;;;;;0.25;0.25;;;;;23.00;37.08;100417.44;4996799;28;45395;-52
2022/05/24 09:24:44;;;;;;;;;1.75;1.00;;;;;22.98;37.32;100422.84;4996995;28;45563;-49
2022/05/24 09:27:24;;;;;;;;;0.75;0.75;;;;;22.95;36.99;100424.88;4997034;28;46348;-49
2022/05/24 09:30:03;;;;;;;;;1.00;1.00;;;;;22.99;37.26;100428.97;4996730;28;45268;-52
2022/05/24 09:32:44;;;;;;;;;2.00;1.00;;;;;22.97;37.13;100433.53;4996832;28;45439;-49
2022/05/24 09:35:10;;;;;;;;;1.00;1.00;;;;;22.97;36.90;100431.72;4996893;28;45155;-49
2022/05/24 09:37:37;;;;;;;;;1.00;1.00;;;;;22.97;36.94;100426.44;4996589;28;45458;-50
2022/05/24 09:40:07;;;;;;;;;1.00;1.00;;;;;22.95;37.25;100428.34;4996534;28;45179;-49
2022/05/24 09:42:36;;;;;;;;;1.00;1.00;;;;;22.98;36.82;100440.53;4996512;28;45368;-52
2022/05/24 09:45:21;;;;;;;;;1.50;1.00;;;;;22.99;36.65;100434.25;4996777;28;45208;-48
2022/05/24 09:47:58;;;;;;;;;1.75;0.50;;;;;22.99;36.69;100435.13;4996350;28;46116;-49
2022/05/24 09:50:49;;;;;;;;;1.00;1.00;;;;;23.00;36.58;100441.22;4996377;28;45868;-47
2022/05/24 09:53:20;;;;;;;;;1.75;1.75;;;;;22.99;36.33;100426.31;4996647;28;45163;-46
2022/05/24 09:55:54;;;;;;;;;1.00;0.25;;;;;22.98;36.35;100435.22;4995289;28;45837;-52
2022/05/24 09:58:22;;;;;;;;;1.00;1.00;;;;;22.99;36.70;100452.75;4995168;28;46742;-50
2022/05/24 10:01:00;;;;;;;;;1.25;1.00;;;;;22.99;36.35;100448.31;4996372;28;45437;-53
2022/05/24 10:03:35;;;;;;;;;3.00;1.75;;;;;22.99;36.80;100447.47;4996401;28;45573;-47
2022/05/24 10:06:06;;;;;;;;;2.00;0.75;;;;;22.99;36.62;100450.97;4996348;28;45323;-48
2022/05/24 10:08:38;;;;;;;;;3.75;1.00;;;;;22.99;36.64;100453.63;4996133;28;45347;-49
2022/05/24 10:11:08;;;;;;;;;1.00;1.00;;;;;22.98;36.46;100446.63;4996207;28;45286;-47
2022/05/24 10:13:47;;;;;;;;;1.00;1.00;;;;;23.00;36.53;100452.66;4996132;28;45387;-49
2022/05/24 10:16:34;;;;;;;;;1.00;1.00;;;;;23.01;36.24;100445.56;4996706;28;45250;-55
2022/05/24 10:19:08;;;;;;;;;1.25;1.00;;;;;23.01;36.54;100456.13;4995979;28;46154;-47
2022/05/24 10:21:54;;;;;;;;;1.75;0.25;;;;;23.01;36.17;100450.84;4996025;28;45411;-50
2022/05/24 10:24:26;;;;;;;;;3.00;1.25;;;;;23.01;36.43;100458.78;4996106;28;45370;-49
2022/05/24 10:27:13;;;;;;;;;1.00;1.00;;;;;23.00;36.16;100459.72;4996383;28;45340;-46
2022/05/24 10:29:49;;;;;;;;;0.50;0.50;;;;;23.00;36.49;100450.00;4995672;28;45415;-48
2022/05/24 10:38:17;;;;;;;;;1.75;0.00;;;;;23.00;36.10;100455.31;4996167;28;45296;-47
2022/05/24 10:38:24;;;;;;;;;3.50;0.75;;;;;23.02;36.16;100468.41;4996002;28;45416;-47
2022/05/24 10:40:59;;;;;;;;;1.00;1.00;;;;;23.03;36.25;100458.69;4961883;28;45475;-47
2022/05/24 10:43:27;;;;;;;;;3.00;2.00;;;;;23.03;36.34;100456.88;4999005;28;45928;-50
2022/05/24 10:46:01;;;;;;;;;2.75;1.00;;;;;23.02;36.28;100457.81;4999193;28;45397;-52
2022/05/24 10:48:38;;;;;;;;;1.00;1.00;;;;;23.01;36.24;100464.06;4999238;28;45460;-49
2022/05/24 10:52:03;;;;;;;;;1.00;1.00;;;;;23.01;36.32;100464.06;4999129;28;46286;-48
2022/05/24 10:54:43;;;;;;;;;3.00;1.00;;;;;23.00;36.34;100463.22;4977149;28;45516;-50
2022/05/24 10:57:26;;;;;;;;;1.00;1.00;;;;;22.98;36.31;100457.22;4996517;28;45640;-48
2022/05/24 10:59:54;;;;;;;;;2.00;1.00;;;;;22.99;35.98;100456.25;4999070;28;45579;-51
2022/05/24 11:02:43;;;;;;;;;1.00;1.00;;;;;22.98;36.10;100461.66;4998834;28;46245;-50
2022/05/24 11:05:19;;;;;;;;;1.25;1.25;;;;;23.00;35.80;100467.66;4998562;28;45587;-46
2022/05/24 11:07:48;;;;;;;;;1.00;1.00;;;;;22.99;35.84;100463.31;4997357;28;45322;-47
2022/05/24 11:10:24;;;;;;;;;1.00;1.00;;;;;23.01;36.02;100466.72;4999110;28;45238;-52
2022/05/24 11:12:53;;;;;;;;;2.00;1.00;;;;;23.02;35.77;100471.03;4998982;28;45447;-52
2022/05/24 11:15:35;;;;;;;;;1.75;1.75;;;;;23.00;36.05;100462.38;4998257;28;45680;-57
2022/05/24 11:18:14;;;;;;;;;0.75;0.00;;;;;23.02;36.21;100471.03;4998928;28;45322;-49
2022/05/24 11:20:46;;;;;;;;;1.00;1.00;;;;;23.04;35.73;100470.94;4999038;28;45351;-49
2022/05/24 11:23:17;;;;;;;;;1.00;1.00;;;;;23.04;35.79;100466.50;4998642;28;46891;-53
2022/05/24 11:26:10;;;;;;;;;4.00;1.00;;;;;23.05;35.70;100462.91;4998612;28;45724;-51
2022/05/24 11:28:43;;;;;;;;;3.00;2.00;;;;;23.03;36.04;100456.88;4998598;28;45165;-48
2022/05/24 11:31:27;;;;;;;;;2.00;1.00;;;;;23.06;35.72;100464.59;4998593;28;45329;-51
2022/05/24 11:33:53;;;;;;;;;2.00;2.00;;;;;23.06;35.82;100459.31;4998296;28;46216;-54
2022/05/24 11:36:37;;;;;;;;;2.00;2.00;;;;;23.06;35.89;100463.72;4998729;28;45366;-52
2022/05/24 11:39:14;;;;;;;;;2.00;1.00;;;;;23.06;35.93;100467.22;4998368;28;45426;-50
2022/05/24 11:41:40;;;;;;;;;1.00;1.00;;;;;23.04;35.53;100458.56;4998146;28;45241;-53
2022/05/24 11:44:28;;;;;;;;;1.75;1.00;;;;;23.06;35.89;100463.72;4996649;28;47278;-51
2022/05/24 11:46:53;;;;;;;;;0.00;0.00;;;;;23.06;35.44;100448.72;4998112;28;45629;-53
2022/05/24 11:49:19;;;;;;;;;1.00;1.00;;;;;23.09;35.71;100460.88;4997175;28;45330;-54
2022/05/24 11:51:49;;;;;;;;;1.00;1.00;;;;;23.09;35.87;100453.81;4998253;28;45499;-56
2022/05/24 11:54:18;;;;;;;;;1.00;1.00;;;;;23.10;35.61;100455.47;4996440;28;46602;-52
2022/05/24 11:57:15;;;;;;;;;1.00;1.00;;;;;23.12;35.84;100447.44;4997979;28;45666;-52
2022/05/24 11:59:40;;;;;;;;;0.50;0.50;;;;;23.13;35.80;100457.06;4998117;28;45425;-48
2022/05/24 12:02:31;;;;;;;;;3.00;1.00;;;;;23.12;35.86;100448.28;4997022;28;45555;-53
2022/05/24 12:07:56;;;;;;;;;1.50;1.00;;;;;23.12;35.55;100458.00;4996850;28;45769;-53